Archival Weather

Chicago O'Hare International

Chicago, Illinois (KORD)

Report from: Sunday, February 5, 2023 12:51 PM CST
Current time: Tuesday, February 27, 2024 4:20 AM CST

Current weather – Weather history – Daily summaries
Weather forecast

Temperature5.0°C (41.0°F)
Wind chill1.5°C (34.7°F)
Dew point-1.7°C (28.9°F)
Winds 9 kts (4.6 m/s, 10.4 mph) West (280°)
Visibility10 mi. (16.1 km)
Clouds Few clouds 17,000 ft. (5,182 m)
Few clouds 25,000 ft. (7,620 m)
Altimeter29.86 in.Hg (1011 mB)
Relative humidity62 %
Density altitude-1,069 ft. (-326 m)
Sea-level pressure101.2 kPa (1012 mB, 29.87 in.Hg)
Remarks System requires maintenance
Automated weather observing station with precipitation discriminator
Flight conditions Visual Meteorological Conditions
Raw dataKORD 051851Z 28009KT 10SM FEW170 FEW250 05/M02 A2986 RMK AO2 SLP116 T00501017 $
An error has occurred. This application may no longer respond until reloaded. Reload 🗙